ADDS METAR Data INFO
IDs: Format: Raw Decoded Include TAF

Data at: 0456 UTC 23 May 2017

KBAZ 230451Z AUTO 02004KT 10SM OVC023 22/19 A2992 RMK AO2 SLP124 T02170189
KBAZ 230351Z AUTO 02005KT 10SM OVC022 22/19 A2990 RMK AO2 SLP119 T02170189
KBAZ 230251Z AUTO 03005KT 10SM OVC021 22/19 A2990 RMK AO2 SLP117 T02220189 53006
KBAZ 230151Z AUTO 04005KT 10SM OVC020 23/19 A2988 RMK AO2 SLP112 T02280189
KBAZ 230051Z AUTO 05007KT 10SM OVC021 23/19 A2988 RMK AO2 SLP111 T02330194
KBAZ 222351Z 05007KT 10SM OVC019 24/19 A2988 RMK AO2 SLP111 T02390189 10244 20228 56012
KBAZ 222251Z 05009KT 10SM OVC018 24/19 A2989 RMK AO2 SLP113 T02390194
KBAZ 222151Z 06009KT 10SM OVC016 24/19 A2990 RMK AO2 SLP118 T02390194
KBAZ 222051Z 05010KT 10SM OVC014 23/19 A2992 RMK AO2 SLP124 T02330194 56018
KBAZ 222019Z 03009KT 10SM OVC014 23/19 A2993 RMK AO2 T02330194
KBAZ 221951Z 03012KT 10SM OVC015 24/19 A2994 RMK AO2 SLP130 T02390194
KBAZ 221932Z 05011KT 10SM OVC015 24/19 A2994 RMK AO2 T02440194
KBAZ 221851Z 04011KT 10SM OVC012 23/19 A2995 RMK AO2 SLP135 T02330189
KBAZ 221751Z 05009KT 10SM OVC010 23/18 A2997 RMK AO2 SLP143 T02280183 10228 20178 56012
KBAZ 221651Z 04011KT 10SM OVC009 21/18 A2999 RMK AO2 SLP150 T02110178
KBAZ 221551Z 04011KT 10SM OVC009 21/17 A3001 RMK AO2 SLP155 T02060172
KBAZ 221451Z 04011KT 10SM OVC009 19/17 A3000 RMK AO2 CIG 008V012 SLP154 T01940167 51002
KBAZ 221446Z 04010G17KT 10SM OVC009 19/17 A3000 RMK AO2 CIG 007V012
KBAZ 221435Z 04010G16KT 10SM OVC010 19/17 A3001 RMK AO2 CIG 007V012 T01890167
KBAZ 221419Z 04013KT 10SM OVC009 18/16 A3000 RMK AO2 CIG 006V013 T01830161
KBAZ 221351Z 03011KT 10SM OVC007 18/17 A3000 RMK AO2 SLP155 T01830167
KBAZ 221251Z 03008KT 10SM OVC007 18/17 A3000 RMK AO2 CIG 006V012 SLP153 T01830167
KBAZ 221219Z 03013KT 10SM OVC009 18/17 A2998 RMK AO2 CIG 006V011 T01830167
KBAZ 221211Z 03013KT 10SM OVC007 18/17 A2998 RMK AO2 CIG 005V010 T01830167
KBAZ 221151Z 03010KT 9SM OVC006 18/17 A2998 RMK AO2 SLP146 60001 70198 T01830167 10183 20172 58004
KBAZ 221051Z AUTO 03006KT 8SM OVC006 18/17 A2999 RMK AO2 SLP150 T01780167
KBAZ 221031Z AUTO 02006KT 9SM OVC007 18/17 A3000 RMK AO2 T01780167
KBAZ 220951Z AUTO 01008KT 10SM OVC009 18/16 A3000 RMK AO2 CIG 007V011 SLP152 T01780161
KBAZ 220914Z AUTO 04008KT 10SM FEW009 OVC014 17/16 A2999 RMK AO2 T01720161
KBAZ 220907Z AUTO 05009KT 10SM OVC016 17/16 A3000 RMK AO2 T01720161
KBAZ 220851Z AUTO 03013KT 10SM FEW008 BKN012 OVC020 17/16 A2999 RMK AO2 WSHFT 0756 RAE02 SLP149 P0000 60001 T01720161 58015
KBAZ 220843Z AUTO 03011KT 10SM FEW008 SCT012 OVC020 17/16 A3000 RMK AO2 WSHFT 0756 RAE02 P0000 T01720161
KBAZ 220833Z AUTO 02009KT 10SM BKN007 BKN013 OVC022 17/16 A3000 RMK AO2 WSHFT 0756 RAE02 CIG 006V011 P0000 T01720161
KBAZ 220829Z AUTO 03010KT 10SM SCT007 SCT013 OVC020 17/16 A3000 RMK AO2 WSHFT 0756 RAE02 P0000 T01720161
KBAZ 220820Z AUTO 03014KT 10SM BKN007 OVC018 17/16 A3001 RMK AO2 WSHFT 0756 RAE02 P0000 T01720161
KBAZ 220810Z AUTO 35014KT 10SM FEW008 OVC018 17/17 A3002 RMK AO2 WSHFT 0756 RAE02 P0000 T01720167
KBAZ 220751Z AUTO 07011KT 10SM -RA OVC018 18/17 A3000 RMK AO2 PRESFR SLP152 P0001 T01780167
KBAZ 220651Z AUTO 05006KT 10SM -RA OVC021 18/17 A3005 RMK AO2 RAB35 SLP168 P0000 T01780167
KBAZ 220620Z AUTO 02007KT 10SM BKN020 OVC120 17/17 A3004 RMK AO2 T01720167
KBAZ 220551Z AUTO 03010KT 10SM CLR 17/17 A3003 RMK AO2 SLP164 60022 T01720167 10189 20172 402610172 56005
KBAZ 220451Z AUTO 03011KT 10SM SCT007 17/17 A3004 RMK AO2 RAE41 SLP165 P0004 T01720167
KBAZ 220439Z AUTO 03012KT 10SM -RA FEW007 SCT110 17/17 A3003 RMK AO2 P0004 T01720167
KBAZ 220351Z AUTO 02014KT 3SM +RA BR SCT044 BKN065 OVC110 18/17 A3004 RMK AO2 SLP168 P0018 T01780167
KBAZ 220346Z AUTO 02015KT 4SM +RA BR SCT046 BKN065 OVC080 18/17 A3005 RMK AO2 PRESFR P0015
KBAZ 220331Z AUTO 02007KT 5SM VCTS RA BR SCT050 BKN070 OVC090 18/17 A3008 RMK AO2 P0009 T01780167
KBAZ 220251Z AUTO 04008KT 10SM -RA FEW028 SCT060 BKN120 18/17 A3006 RMK AO2 LTG DSNT SW AND W RAB39 SLP171 P0000 60000 T01830167 51029
KBAZ 220151Z AUTO 02009KT 10SM FEW055 SCT090 BKN110 18/17 A3003 RMK AO2 PRESRR SLP164 T01830172
KBAZ 220051Z AUTO 36010KT 10SM CLR 18/18 A3001 RMK AO2 PK WND 36026/2356 RAE11 SLP156 P0000 T01830178
KBAZ 212359Z AUTO 36015G26KT 9SM -RA FEW007 BKN033 OVC100 19/18 A3000 RMK AO2 PK WND 36026/2356 LTG DSNT N-E PRESRR P0000 T01890183
KBAZ 212351Z 02017G30KT 3SM VCTS -RA BR BKN035 BKN070 OVC100 19/18 A2997 RMK AO2 PK WND 03032/2341 WSHFT 2253 LTG DSNT N-E TSE21B26E50 SLP141 P0133 60175 T01890183 10261 20189 58015
KBAZ 212347Z 03018G32KT 1 3/4SM TSRA BR BKN033 BKN075 OVC100 19/18 A2997 RMK AO2 PK WND 03032/2341 WSHFT 2253 LTG DSNT N-E TSE21B26 P0133
KBAZ 212344Z 03023G32KT 1 1/4SM +TSRA BR SCT027 BKN042 OVC090 19/18 A2995 RMK AO2 PK WND 03032/2341 WSHFT 2253 LTG DSNT N-E TSE21B26 P0132 T01890183
KBAZ 212335Z 04024G28KT 3/4SM +TSRA BR BKN023 BKN040 OVC065 19/18 A2999 RMK AO2 PK WND 04028/2335 WSHFT 2253 LTG DSNT N-SE TSE21B26 PRESFR P0124 T01890183
KBAZ 212332Z 04017KT 1 1/4SM +TSRA BR BKN021 BKN040 OVC065 19/18 A3002 RMK AO2 WSHFT 2253 LTG DSNT N-SE TSE21B26 P0118 T01890183
KBAZ 212330Z 03012G17KT 1 3/4SM +TSRA BR SCT019 BKN040 OVC065 19/19 A3004 RMK AO2 WSHFT 2253 LTG DSNT N-SE TSE21B26 P0114 T01890189
KBAZ 212326Z 00000KT 6SM -TSRA BR SCT012 BKN040 OVC065 19/19 A3006 RMK AO2 WSHFT 2253 LTG DSNT ALQDS TSE21B26 PRESRR P0106 T01890189
KBAZ 212321Z 04005KT 4SM VCTS -RA BR BKN012 BKN042 OVC065 19/18 A3005 RMK AO2 WSHFT 2253 LTG DSNT ALQDS TSE21 P0104 T01890183
KBAZ 212319Z 03009KT 2 1/2SM TSRA BR BKN012 BKN042 OVC065 19/18 A3005 RMK AO2 WSHFT 2253 LTG DSNT ALQDS P0104 T01890183
KBAZ 212317Z 03010KT 1 1/4SM TSRA BR BKN012 BKN044 OVC065 19/18 A3004 RMK AO2 WSHFT 2253 LTG DSNT ALQDS P0104 T01890183
KBAZ 212311Z 05012KT 1/2SM +TSRA FG BKN012 OVC027 19/18 A3003 RMK AO2 WSHFT 2253 LTG DSNT ALQDS P0103 T01890178
KBAZ 212301Z 04017KT 1/4SM +TSRA FG BKN012 BKN027 OVC047 20/18 A3004 RMK AO2 LTG DSNT ALQDS P0063 T02000183
KBAZ 212251Z 04007KT 1/2SM +TSRA SCT014 BKN027 OVC065 21/17 A3005 RMK AO2 LTG DSNT ALQDS RAB44 TSB31 PRESRR SLP170 P0042 T02110172
KBAZ 212249Z VRB05KT 3/4SM +TSRA FEW014 BKN027 OVC065 22/17 A3005 RMK AO2 LTG DSNT ALQDS RAB44 TSB31 PRESRR P0030
KBAZ 212247Z VRB06KT 1 1/4SM +TSRA FEW017 BKN048 OVC065 23/17 A3005 RMK AO2 LTG DSNT ALQDS RAB44 TSB31 PRESRR P0019
KBAZ 212237Z 02010KT 10SM TS BKN050 BKN065 BKN120 24/16 A3001 RMK AO2 LTG DSNT ALQDS TSB31 T02390161
KBAZ 212228Z 03014G19KT 10SM VCTS SCT055 BKN070 BKN120 24/16 A2999 RMK AO2 LTG DSNT ALQDS T02390161
KBAZ 212151Z 03011KT 10SM FEW090 BKN110 24/16 A3001 RMK AO2 LTG DSNT S SLP154 T02440161
KBAZ 212051Z 03012KT 10SM SCT120 25/16 A3001 RMK AO2 PK WND 02026/2023 SLP155 T02500156 58009
KBAZ 211951Z 02013KT 10SM SCT024 SCT029 BKN050 25/17 A3004 RMK AO2 SLP164 T02500167
KBAZ 211851Z 05012KT 10SM OVC022 24/17 A3004 RMK AO2 SLP163 T02390172
KBAZ 211751Z 04011KT 10SM OVC020 25/17 A3004 RMK AO2 SLP165 T02500172 10250 20222 58003


Page loaded:  04:56 UTC  |   09:56 PM Pacific  |   10:56 PM Mountain  |   11:56 PM Central  |   12:56 AM Eastern

 

ADVISORIES

FORECASTS

FORECASTS

OBSERVATIONS

USER TOOLS

ABOUT US